Time;durP1;ratioP1;P1;durP2;ratioP2;P2;SDS_P1;SDS_P2;PMS_P1;PMS_P2;Temp;Humidity;BMP_temperature;BMP_pressure;BME280_temperature;BME280_humidity;BME280_pressure;Samples;Min_cycle;Max_cycle;Signal;HPM_P1;HPM_P2
2021/12/23 05:47:53;;;;;;;18.02;9.20;;;-2.60;99.90;;;;;;5218763;23;20074;-77
2021/12/23 05:50:19;;;;;;;;;;;-2.60;99.90;;;;;;5041032;28;20022;-77
2021/12/23 05:52:51;;;;;;;22.95;10.15;;;-2.50;99.90;;;;;;5040683;28;19900;-77
2021/12/23 05:55:18;;;;;;;18.95;9.35;;;-2.60;99.90;;;;;;5637404;23;20038;-81
2021/12/23 05:57:44;;;;;;;22.42;9.38;;;-2.60;99.90;;;;;;5020628;28;20026;-81
2021/12/23 06:00:24;;;;;;;20.13;10.30;;;-2.60;99.90;;;;;;5020847;28;20022;-80
2021/12/23 06:02:51;;;;;;;22.55;10.60;;;-2.60;99.90;;;;;;5020767;28;20045;-79
2021/12/23 06:05:17;;;;;;;17.35;9.55;;;-2.70;99.90;;;;;;5020849;28;20010;-78
2021/12/23 06:07:43;;;;;;;22.67;10.02;;;-2.70;99.90;;;;;;5020596;28;20014;-82
2021/12/23 06:10:11;;;;;;;24.65;9.43;;;-2.60;99.90;;;;;;5020367;28;20015;-79
2021/12/23 06:12:37;;;;;;;24.25;10.63;;;-2.60;99.90;;;;;;5019117;28;20014;-79
2021/12/23 06:15:04;;;;;;;19.27;10.18;;;-2.60;99.90;;;;;;5018701;28;20018;-79
2021/12/23 06:17:30;;;;;;;21.20;10.15;;;-2.60;99.90;;;;;;5020293;28;20030;-82
2021/12/23 06:19:56;;;;;;;;;;;-2.60;99.90;;;;;;5019671;28;20022;-81
2021/12/23 06:22:22;;;;;;;19.10;8.80;;;-2.60;99.90;;;;;;5019816;28;19901;-81
2021/12/23 06:24:48;;;;;;;;;;;-2.60;99.90;;;;;;5019968;28;20026;-81
2021/12/23 06:27:16;;;;;;;20.90;9.32;;;-2.60;99.90;;;;;;5019350;28;19913;-81
2021/12/23 06:29:42;;;;;;;19.08;9.80;;;-2.50;99.90;;;;;;5020311;28;20015;-80
2021/12/23 06:32:08;;;;;;;;;;;-2.50;99.90;;;;;;5019811;28;20061;-81
2021/12/23 06:34:34;;;;;;;20.42;9.55;;;-2.50;99.90;;;;;;5019535;28;19906;-80
2021/12/23 06:37:00;;;;;;;;;;;-2.50;99.90;;;;;;5020289;28;20006;-79
2021/12/23 06:39:26;;;;;;;23.55;11.13;;;-2.50;99.90;;;;;;5019675;28;19928;-82
2021/12/23 06:41:52;;;;;;;27.05;12.32;;;-2.50;99.90;;;;;;5020024;28;20014;-81
2021/12/23 06:44:17;;;;;;;;;;;-2.50;99.90;;;;;;5020464;28;20034;-77
2021/12/23 09:44:37;;;;;;;25.63;13.30;;;-1.20;92.30;;;;;;4979934;26;19906;-82
2021/12/23 10:32:13;;;;;;;27.98;15.23;;;-0.70;95.10;;;;;;5040076;28;20089;-76
2021/12/23 10:37:23;;;;;;;;;;;-0.60;94.10;;;;;;5040501;28;20078;-76
2021/12/23 10:58:11;;;;;;;36.10;20.58;;;-0.50;93.70;;;;;;5228778;22;20258;-78
2021/12/23 11:00:45;;;;;;;23.20;11.88;;;-0.60;90.50;;;;;;5039668;28;20005;-76
2021/12/23 11:03:27;;;;;;;41.33;22.20;;;-0.40;90.60;;;;;;5039697;28;20006;-76
2021/12/23 11:06:09;;;;;;;27.00;12.98;;;-0.40;89.20;;;;;;5039154;28;20106;-76
2021/12/23 11:08:55;;;;;;;23.75;12.38;;;-0.20;91.20;;;;;;5039641;28;20078;-77
2021/12/23 11:44:34;;;;;;;28.35;14.52;;;-0.30;95.30;;;;;;5039208;28;20094;-76
2021/12/23 11:53:49;;;;;;;26.23;11.95;;;-0.30;97.80;;;;;;5040299;23;20049;-79
2021/12/23 11:56:18;;;;;;;25.25;12.98;;;-0.30;97.90;;;;;;5020689;28;20011;-78
2021/12/23 11:58:47;;;;;;;29.23;13.65;;;-0.50;98.00;;;;;;5022550;28;20038;-76
2021/12/23 12:01:28;;;;;;;19.52;10.27;;;-0.50;98.90;;;;;;5007475;28;20058;-79
2021/12/23 12:04:02;;;;;;;21.65;10.70;;;-0.40;98.50;;;;;;4997292;28;20076;-80
2021/12/23 12:09:55;;;;;;;21.98;10.63;;;-0.40;98.80;;;;;;5013278;28;20045;-80
2021/12/23 12:12:21;;;;;;;24.08;11.30;;;-0.60;99.90;;;;;;5008058;28;20038;-79
2021/12/23 12:14:47;;;;;;;;;;;-0.70;99.80;;;;;;5007403;28;20106;-79
2021/12/23 12:17:18;;;;;;;22.17;11.82;;;-0.60;99.90;;;;;;5015030;28;19906;-80
2021/12/23 12:20:14;;;;;;;15.80;9.25;;;-0.60;99.90;;;;;;5001268;28;20046;-79
2021/12/23 12:22:58;;;;;;;21.50;10.25;;;-0.70;99.90;;;;;;5002368;28;20038;-80
2021/12/23 12:25:24;;;;;;;24.70;10.43;;;-0.60;99.90;;;;;;5000715;28;20026;-79
2021/12/23 12:28:10;;;;;;;;;;;-0.40;99.90;;;;;;5004929;28;20479;-79
2021/12/23 12:31:05;;;;;;;29.08;10.90;;;-0.30;99.00;;;;;;5002699;28;19925;-79
2021/12/23 12:33:34;;;;;;;24.80;11.50;;;-0.30;99.40;;;;;;5004632;28;20030;-80
2021/12/23 12:36:03;;;;;;;28.33;14.88;;;-0.30;99.60;;;;;;5008733;28;20037;-80
2021/12/23 12:38:32;;;;;;;19.02;10.43;;;-0.20;99.90;;;;;;5005517;28;20030;-79
2021/12/23 12:41:04;;;;;;;20.98;10.70;;;-0.10;99.70;;;;;;4994295;28;20034;-80
2021/12/23 12:43:51;;;;;;;21.63;11.02;;;-0.10;99.50;;;;;;5002819;28;20034;-80
2021/12/23 12:46:39;;;;;;;21.90;12.02;;;-0.20;99.90;;;;;;4982175;28;20062;-79
2021/12/23 12:49:18;;;;;;;23.23;11.73;;;-0.20;99.90;;;;;;4977862;28;20030;-78
2021/12/23 12:51:47;;;;;;;124.13;52.92;;;-0.20;99.90;;;;;;4974660;28;20042;-77
2021/12/23 12:54:29;;;;;;;41.25;19.20;;;-0.20;99.90;;;;;;4975943;28;20050;-78
2021/12/23 12:56:58;;;;;;;23.50;11.70;;;-0.20;99.90;;;;;;4974291;28;20366;-78
2021/12/23 12:59:29;;;;;;;21.63;11.50;;;-0.30;99.90;;;;;;4970825;28;20045;-78
2021/12/23 13:01:57;;;;;;;21.02;11.07;;;-0.40;99.90;;;;;;4972340;28;20042;-77
2021/12/23 13:04:43;;;;;;;27.98;12.48;;;-0.30;99.90;;;;;;4975647;28;20031;-79
2021/12/23 13:07:48;;;;;;;32.88;16.23;;;-0.40;99.90;;;;;;4976411;28;20031;-78
2021/12/23 13:10:19;;;;;;;23.63;10.77;;;-0.50;99.90;;;;;;4974630;28;20030;-79
2021/12/23 13:12:52;;;;;;;22.27;10.27;;;-0.50;99.90;;;;;;4976158;28;20038;-78
2021/12/23 13:15:21;;;;;;;30.15;15.00;;;-0.50;99.90;;;;;;4974581;28;20102;-77
2021/12/23 13:17:57;;;;;;;30.40;12.32;;;-0.60;99.90;;;;;;4972571;28;20396;-77
2021/12/23 13:20:40;;;;;;;27.75;14.23;;;-0.70;99.90;;;;;;4974645;28;20031;-79
2021/12/23 13:23:21;;;;;;;23.38;12.40;;;-0.80;99.90;;;;;;4975781;28;20054;-79
2021/12/23 13:25:53;;;;;;;40.15;19.80;;;-0.80;99.90;;;;;;4976701;28;20033;-78
2021/12/23 13:29:01;;;;;;;30.10;13.57;;;-0.90;99.90;;;;;;4981225;28;20034;-78
2021/12/23 13:31:30;;;;;;;39.47;16.63;;;-0.90;99.90;;;;;;4958126;28;20471;-78
2021/12/23 13:34:05;;;;;;;699.17;309.40;;;-1.00;99.90;;;;;;4981984;28;20459;-79
2021/12/23 13:36:49;;;;;;;47.30;22.08;;;-1.00;99.90;;;;;;4987596;28;20018;-78
2021/12/23 13:39:27;;;;;;;29.90;14.60;;;-1.10;99.90;;;;;;4986571;28;20113;-79
2021/12/23 13:41:56;;;;;;;28.05;12.52;;;-1.20;99.90;;;;;;4980253;28;20031;-78
2021/12/23 13:44:41;;;;;;;35.88;17.55;;;-1.30;99.90;;;;;;4976129;28;20037;-78
2021/12/23 13:47:15;;;;;;;124.43;48.03;;;-1.10;99.90;;;;;;4979312;28;20058;-79
2021/12/23 13:49:47;;;;;;;316.25;123.32;;;-1.00;99.90;;;;;;4982267;28;20043;-79
2021/12/23 13:52:34;;;;;;;192.07;79.50;;;-1.10;99.90;;;;;;4982173;28;20043;-79
2021/12/23 13:55:12;;;;;;;50.55;21.60;;;-1.20;99.90;;;;;;4981545;28;20110;-79
2021/12/23 13:57:46;;;;;;;85.70;43.88;;;-1.20;99.90;;;;;;4981895;28;20085;-79
2021/12/23 14:00:12;;;;;;;43.05;19.38;;;-1.30;99.90;;;;;;4980479;28;20050;-78
2021/12/23 14:02:38;;;;;;;;;;;-1.10;99.90;;;;;;4980562;28;20031;-80
2021/12/23 14:05:07;;;;;;;46.72;19.00;;;-1.10;99.90;;;;;;4983634;28;20005;-79
2021/12/23 14:07:42;;;;;;;119.75;47.85;;;-1.10;99.90;;;;;;4984684;28;20030;-79
2021/12/23 14:10:15;;;;;;;50.60;23.52;;;-1.10;99.90;;;;;;4988188;28;20019;-79
2021/12/23 14:12:45;;;;;;;64.28;31.23;;;-1.20;99.90;;;;;;4982173;28;20038;-79
2021/12/23 14:15:15;;;;;;;64.18;31.42;;;-1.20;99.90;;;;;;4981861;28;20058;-79
2021/12/23 14:17:44;;;;;;;73.35;40.25;;;-1.20;99.90;;;;;;4982280;28;20446;-78
2021/12/23 14:23:17;;;;;;;249.55;74.20;;;-1.40;99.90;;;;;;4978544;28;20530;-79
2021/12/23 14:25:59;;;;;;;256.15;79.35;;;-1.40;99.90;;;;;;4975452;28;20050;-79
2021/12/23 14:28:47;;;;;;;72.65;30.10;;;-1.50;99.90;;;;;;4980372;28;20039;-80
2021/12/23 14:31:28;;;;;;;190.88;60.67;;;-1.60;99.90;;;;;;4980030;28;20031;-80
2021/12/23 14:34:04;;;;;;;105.85;36.63;;;-1.60;99.90;;;;;;4986392;28;20031;-79
2021/12/23 14:36:37;;;;;;;61.85;23.40;;;-1.60;99.90;;;;;;4984249;28;20037;-79
2021/12/23 14:39:06;;;;;;;476.05;154.63;;;-1.70;99.90;;;;;;4979645;28;20114;-78
2021/12/23 14:41:39;;;;;;;167.90;64.63;;;-1.60;99.90;;;;;;4978335;28;20030;-78
2021/12/23 14:44:28;;;;;;;166.30;66.43;;;-1.60;99.90;;;;;;4981461;28;20062;-78
2021/12/23 14:47:22;;;;;;;147.52;63.35;;;-1.50;99.90;;;;;;4978071;28;20090;-77
2021/12/23 14:52:23;;;;;;;56.50;26.48;;;-1.60;99.90;;;;;;4990400;28;20042;-79
2021/12/23 14:55:02;;;;;;;37.85;19.35;;;-1.60;99.90;;;;;;4987847;28;20058;-80
2021/12/23 14:57:33;;;;;;;34.08;17.73;;;-1.60;99.90;;;;;;4989969;28;20014;-80
2021/12/23 15:00:12;;;;;;;40.30;20.58;;;-1.70;99.90;;;;;;4988137;28;20027;-78
2021/12/23 15:02:39;;;;;;;377.30;130.60;;;-1.80;99.90;;;;;;4973008;28;20488;-78
2021/12/23 15:05:08;;;;;;;764.00;281.85;;;-1.70;99.90;;;;;;4973268;28;20093;-79
2021/12/23 15:07:57;;;;;;;392.77;138.52;;;-1.70;99.90;;;;;;4973415;28;20026;-79
2021/12/23 15:10:29;;;;;;;609.55;244.55;;;-1.60;99.90;;;;;;4983932;28;20023;-78
2021/12/23 15:12:55;;;;;;;103.95;40.58;;;-1.60;99.90;;;;;;4978384;28;20038;-80
2021/12/23 15:15:21;;;;;;;;;;;-1.60;99.90;;;;;;4979685;28;20033;-78
2021/12/23 15:17:55;;;;;;;47.47;24.30;;;-1.70;99.90;;;;;;4979700;28;20000;-80
2021/12/23 15:20:28;;;;;;;31.13;16.88;;;-1.60;99.90;;;;;;4981072;28;20026;-80
2021/12/23 15:22:56;;;;;;;55.45;31.00;;;-1.60;99.90;;;;;;4980465;28;20093;-80
2021/12/23 15:25:36;;;;;;;41.38;20.27;;;-1.60;99.90;;;;;;4978948;28;20029;-80
2021/12/23 15:28:04;;;;;;;32.10;16.50;;;-1.50;99.90;;;;;;4983015;28;20491;-80
2021/12/23 15:30:32;;;;;;;37.22;18.85;;;-1.50;99.90;;;;;;4982442;28;20026;-80
2021/12/23 15:32:59;;;;;;;59.22;28.08;;;-1.50;99.90;;;;;;4983440;28;20038;-79
2021/12/23 15:35:29;;;;;;;61.35;31.45;;;-1.50;99.90;;;;;;4983888;28;20015;-80
2021/12/23 15:37:56;;;;;;;240.18;108.57;;;-1.40;99.90;;;;;;4983788;28;20030;-79
2021/12/23 15:40:25;;;;;;;230.63;96.60;;;-1.40;99.90;;;;;;4986505;28;20015;-80
2021/12/23 15:42:55;;;;;;;607.95;295.00;;;-1.30;99.90;;;;;;4981653;28;20031;-80
2021/12/23 15:45:21;;;;;;;475.38;194.20;;;-1.40;99.90;;;;;;4989604;28;20399;-80
2021/12/23 15:47:47;;;;;;;;;;;-1.40;99.90;;;;;;4987368;28;20026;-80
2021/12/23 15:50:13;;;;;;;77.57;31.73;;;-1.40;99.90;;;;;;4987325;28;19917;-80
2021/12/23 15:52:39;;;;;;;37.25;17.77;;;-1.30;99.90;;;;;;4985537;28;20042;-80
2021/12/23 15:55:05;;;;;;;;;;;-1.40;99.90;;;;;;4985916;28;20054;-80
2021/12/23 15:57:31;;;;;;;56.45;27.95;;;-1.40;99.90;;;;;;4985940;28;20676;-80
2021/12/23 15:59:57;;;;;;;;;;;-1.40;99.90;;;;;;4984923;28;20026;-80
2021/12/23 16:02:27;;;;;;;100.13;47.50;;;-1.40;99.90;;;;;;4980856;28;20438;-80
2021/12/23 16:07:34;;;;;;;57.20;27.20;;;-1.50;99.90;;;;;;4983243;28;20046;-80
2021/12/23 16:10:02;;;;;;;47.40;23.95;;;-1.50;99.90;;;;;;4981696;28;20037;-80
2021/12/23 16:12:32;;;;;;;54.67;27.73;;;-1.30;99.90;;;;;;4982683;28;20042;-80
2021/12/23 16:14:59;;;;;;;31.95;17.00;;;-1.30;99.90;;;;;;4981575;28;20023;-80
2021/12/23 16:17:26;;;;;;;35.13;18.80;;;-1.30;99.90;;;;;;4983314;28;20023;-80
2021/12/23 16:19:53;;;;;;;47.47;19.75;;;-1.30;99.90;;;;;;4978625;28;20029;-80
2021/12/23 16:22:20;;;;;;;50.67;21.10;;;-1.30;99.90;;;;;;4978851;28;20090;-79
2021/12/23 16:24:46;;;;;;;50.47;20.63;;;-1.40;99.90;;;;;;4978164;28;20019;-80
2021/12/23 16:27:13;;;;;;;;;;;-1.40;99.90;;;;;;4976817;28;20742;-79
2021/12/23 16:30:15;;;;;;;38.88;18.60;;;-1.40;99.90;;;;;;4978319;28;19969;-80
2021/12/23 16:32:45;;;;;;;193.13;71.82;;;-1.40;99.90;;;;;;4944091;29;20031;-80
2021/12/23 16:35:14;;;;;;;59.95;24.23;;;-1.40;99.90;;;;;;4977447;28;20078;-80
2021/12/23 16:37:40;;;;;;;51.55;22.15;;;-1.20;99.90;;;;;;4981384;28;20025;-78
2021/12/23 16:40:09;;;;;;;103.13;43.30;;;-1.20;99.90;;;;;;4976143;28;20118;-79
2021/12/23 16:42:35;;;;;;;56.47;24.13;;;-1.20;99.90;;;;;;4977135;28;20030;-79
2021/12/23 16:45:01;;;;;;;;;;;-1.30;99.90;;;;;;4978764;28;20062;-79
2021/12/23 16:47:26;;;;;;;210.23;80.28;;;-1.40;99.90;;;;;;4980110;28;19936;-80
2021/12/23 16:49:52;;;;;;;;;;;-1.40;99.90;;;;;;4983361;28;20030;-79
2021/12/23 16:52:18;;;;;;;59.17;28.13;;;-1.40;99.90;;;;;;4984196;28;20033;-79
2021/12/23 16:54:53;;;;;;;;;;;-1.40;99.90;;;;;;4980713;28;20055;-80
2021/12/23 16:57:38;;;;;;;40.78;21.55;;;-1.40;99.90;;;;;;4982431;28;19910;-80
2021/12/23 17:00:07;;;;;;;74.20;36.33;;;-1.40;99.90;;;;;;4982870;28;20033;-78
2021/12/23 17:02:32;;;;;;;45.35;23.08;;;-1.50;99.90;;;;;;4985036;28;20011;-79
2021/12/23 17:04:58;;;;;;;;;;;-1.50;99.90;;;;;;4985327;28;20031;-79
2021/12/23 17:07:24;;;;;;;32.60;16.45;;;-1.50;99.90;;;;;;4979570;28;19917;-79
2021/12/23 17:09:50;;;;;;;;;;;-1.50;99.90;;;;;;4977100;28;20062;-78
2021/12/23 17:12:16;;;;;;;28.90;15.35;;;-1.50;99.90;;;;;;4969783;28;20405;-78
2021/12/23 17:14:42;;;;;;;28.13;15.40;;;-1.50;99.90;;;;;;4983140;28;20031;-76
2021/12/23 17:17:08;;;;;;;;;;;-1.40;99.90;;;;;;4992922;28;20045;-78
2021/12/23 17:19:46;;;;;;;30.48;13.50;;;-1.40;99.90;;;;;;4993344;28;20655;-77
2021/12/23 17:22:13;;;;;;;27.05;13.35;;;-1.40;99.90;;;;;;4989107;28;20031;-77
2021/12/23 17:24:38;;;;;;;30.23;14.80;;;-1.40;99.90;;;;;;4992725;28;20035;-78
2021/12/23 17:27:04;;;;;;;;;;;-1.20;99.90;;;;;;4997013;28;20403;-79
2021/12/23 17:29:31;;;;;;;27.38;12.77;;;-1.20;99.90;;;;;;5000399;28;19917;-79
2021/12/23 17:31:57;;;;;;;34.08;14.57;;;-1.10;99.90;;;;;;4999822;28;20046;-80
2021/12/23 17:34:23;;;;;;;30.77;14.35;;;-1.00;99.90;;;;;;4990350;28;20019;-78
2021/12/23 17:36:50;;;;;;;;;;;-1.00;99.90;;;;;;4990670;28;20245;-78
2021/12/23 17:39:16;;;;;;;;;;;-1.20;99.90;;;;;;4994522;28;19947;-76
2021/12/23 17:41:42;;;;;;;28.23;15.35;;;-1.30;99.90;;;;;;4988220;28;19949;-80
2021/12/23 17:44:08;;;;;;;28.27;15.30;;;-1.40;99.90;;;;;;4988721;28;20110;-78
2021/12/23 17:46:33;;;;;;;;;;;-1.40;99.90;;;;;;4990587;28;20133;-78
2021/12/23 17:48:59;;;;;;;29.95;13.80;;;-1.30;99.90;;;;;;4990945;28;20393;-78
2021/12/23 17:51:25;;;;;;;;;;;-1.30;99.90;;;;;;4998756;28;20037;-79
2021/12/23 17:53:52;;;;;;;32.28;15.63;;;-1.20;99.90;;;;;;4996106;28;20298;-79
2021/12/23 17:56:19;;;;;;;33.20;15.55;;;-1.20;99.90;;;;;;4996326;28;20068;-78
2021/12/23 17:58:45;;;;;;;36.83;14.88;;;-1.20;99.90;;;;;;4999308;28;20019;-80
2021/12/23 18:01:10;;;;;;;;;;;-1.20;99.90;;;;;;4998678;28;20533;-80
2021/12/23 18:03:37;;;;;;;32.35;15.60;;;-1.20;99.90;;;;;;5001143;28;19965;-78
2021/12/23 18:06:04;;;;;;;32.97;15.20;;;-1.30;99.90;;;;;;5003446;28;20034;-79
2021/12/23 18:08:30;;;;;;;27.83;15.73;;;-1.30;99.90;;;;;;4990653;28;20030;-77
2021/12/23 18:10:56;;;;;;;30.30;15.02;;;-1.30;99.90;;;;;;4989441;28;20088;-78
2021/12/23 18:13:22;;;;;;;;;;;-1.30;99.90;;;;;;4989512;28;20759;-78
2021/12/23 18:15:49;;;;;;;26.98;14.43;;;-1.30;99.90;;;;;;4988087;28;19916;-77
2021/12/23 18:18:14;;;;;;;29.70;15.43;;;-1.40;99.90;;;;;;4991370;28;20023;-78
2021/12/23 18:20:40;;;;;;;;;;;-1.50;99.90;;;;;;5002469;28;20045;-79
2021/12/23 18:23:08;;;;;;;34.33;17.73;;;-1.50;99.90;;;;;;5000641;28;19906;-79
2021/12/23 18:25:35;;;;;;;35.70;16.55;;;-1.60;99.90;;;;;;4997690;28;20503;-79
2021/12/23 18:28:02;;;;;;;186.00;68.68;;;-1.60;99.90;;;;;;5003500;28;20029;-79
2021/12/23 18:30:28;;;;;;;44.80;21.92;;;-1.50;99.90;;;;;;4993067;28;20034;-77
2021/12/23 18:32:55;;;;;;;49.90;24.90;;;-1.60;99.90;;;;;;4997528;28;20100;-80
2021/12/23 18:35:27;;;;;;;35.47;18.40;;;-1.50;99.90;;;;;;4997816;28;20387;-78
2021/12/23 18:37:58;;;;;;;62.08;31.15;;;-1.50;99.90;;;;;;4995202;28;20041;-78
2021/12/23 18:40:32;;;;;;;84.20;39.38;;;-1.50;99.90;;;;;;4991904;28;20056;-78
2021/12/23 18:42:59;;;;;;;211.15;97.90;;;-1.50;99.90;;;;;;4995037;28;20029;-79
2021/12/23 18:45:29;;;;;;;80.07;44.60;;;-1.30;99.90;;;;;;5001541;28;20030;-80
2021/12/23 18:47:55;;;;;;;35.42;17.55;;;-1.30;99.90;;;;;;4999561;28;20023;-78
2021/12/23 18:50:24;;;;;;;38.20;17.55;;;-1.30;99.90;;;;;;4988120;28;20031;-78
2021/12/23 18:52:52;;;;;;;51.38;24.70;;;-1.40;99.90;;;;;;4990283;28;20080;-78
2021/12/23 18:55:18;;;;;;;33.33;19.90;;;-1.40;99.90;;;;;;4996980;28;20057;-79
2021/12/23 18:57:45;;;;;;;33.40;17.60;;;-1.40;99.90;;;;;;4993802;28;20022;-78
2021/12/23 19:00:19;;;;;;;33.38;17.70;;;-1.40;99.90;;;;;;4992299;28;20161;-79
2021/12/23 19:05:26;;;;;;;37.35;19.08;;;-1.10;99.90;;;;;;4992575;28;20495;-79
2021/12/23 19:07:53;;;;;;;32.72;16.73;;;-1.30;99.90;;;;;;4995765;28;20028;-79
2021/12/23 19:10:20;;;;;;;27.90;15.25;;;-1.40;99.90;;;;;;4998517;28;20039;-80
2021/12/23 19:12:48;;;;;;;26.25;14.75;;;-1.40;99.90;;;;;;4999251;28;20055;-80
2021/12/23 19:15:14;;;;;;;33.15;18.42;;;-1.40;99.90;;;;;;4997390;28;20472;-79
2021/12/23 19:17:41;;;;;;;56.60;32.05;;;-1.40;99.90;;;;;;4994883;28;20037;-80
2021/12/23 19:20:07;;;;;;;33.20;15.02;;;-1.30;99.90;;;;;;4965921;28;20038;-80
2021/12/23 19:22:35;;;;;;;25.67;15.35;;;-1.30;99.90;;;;;;4962718;29;20032;-79
2021/12/23 19:25:02;;;;;;;29.13;15.55;;;-1.40;99.90;;;;;;4962567;28;20032;-80
2021/12/23 19:27:28;;;;;;;28.67;14.07;;;-1.30;99.90;;;;;;4964317;28;20023;-80
2021/12/23 19:29:54;;;;;;;;;;;-1.30;99.90;;;;;;4963200;28;20028;-80
2021/12/23 19:32:19;;;;;;;27.20;14.35;;;-1.30;99.90;;;;;;4963364;29;19911;-80
2021/12/23 19:34:45;;;;;;;;;;;-1.30;99.90;;;;;;4961316;28;20035;-79
2021/12/23 19:37:11;;;;;;;92.65;52.85;;;-1.10;99.90;;;;;;4963111;29;19934;-80
2021/12/23 19:39:37;;;;;;;37.58;19.67;;;-1.10;99.90;;;;;;4977471;28;20404;-79
2021/12/23 19:42:03;;;;;;;;;;;-1.10;99.90;;;;;;4962071;29;20046;-80
2021/12/23 19:44:29;;;;;;;197.63;85.00;;;-1.20;99.90;;;;;;4960104;28;19910;-79
2021/12/23 19:46:54;;;;;;;;;;;-1.20;99.90;;;;;;4963308;28;20063;-79
2021/12/23 19:49:21;;;;;;;104.90;43.40;;;-1.20;99.90;;;;;;4960693;28;19911;-80
2021/12/23 19:51:51;;;;;;;72.53;32.42;;;-1.20;99.90;;;;;;4962600;29;20058;-79
2021/12/23 19:54:19;;;;;;;31.52;17.77;;;-1.20;99.90;;;;;;4965708;28;20126;-80
2021/12/23 19:56:45;;;;;;;38.63;21.38;;;-1.20;99.90;;;;;;4980075;28;20027;-79
2021/12/23 19:59:11;;;;;;;;;;;-1.30;99.90;;;;;;4963242;28;20034;-80
2021/12/23 20:01:36;;;;;;;40.65;22.15;;;-1.30;99.90;;;;;;4977795;28;20383;-80
2021/12/23 20:04:04;;;;;;;;;;;-1.30;99.90;;;;;;4962433;28;20037;-80
2021/12/23 20:06:31;;;;;;;34.58;18.77;;;-1.30;99.90;;;;;;4962071;29;19906;-80
2021/12/23 20:08:56;;;;;;;28.75;14.45;;;-1.30;99.90;;;;;;4963676;29;20038;-81
2021/12/23 20:11:22;;;;;;;;;;;-1.30;99.90;;;;;;4963295;28;20035;-79
2021/12/23 20:13:49;;;;;;;39.58;22.35;;;-1.30;99.90;;;;;;4962456;28;19918;-80
2021/12/23 20:16:15;;;;;;;37.38;18.30;;;-1.40;99.90;;;;;;4966642;29;20042;-80
2021/12/23 20:18:41;;;;;;;;;;;-1.30;99.90;;;;;;4966387;29;20024;-80
2021/12/23 20:21:09;;;;;;;156.05;96.25;;;-1.30;99.90;;;;;;4982212;28;20298;-80
2021/12/23 20:23:35;;;;;;;35.63;18.55;;;-1.30;99.90;;;;;;4965532;29;20028;-80
2021/12/23 20:26:01;;;;;;;32.88;18.08;;;-1.40;99.90;;;;;;4967319;28;20178;-79
2021/12/23 20:28:28;;;;;;;;;;;-1.40;99.90;;;;;;4969481;28;20035;-80
2021/12/23 20:30:54;;;;;;;82.40;43.08;;;-1.40;99.90;;;;;;4981544;28;19910;-80
2021/12/23 20:33:20;;;;;;;;;;;-1.40;99.90;;;;;;4966271;29;20034;-80
2021/12/23 20:35:47;;;;;;;35.83;19.23;;;-1.40;99.90;;;;;;4981444;28;20398;-80
2021/12/23 20:38:13;;;;;;;176.68;78.55;;;-1.40;99.90;;;;;;4981354;28;20551;-80
2021/12/23 20:40:39;;;;;;;55.33;25.88;;;-1.40;99.90;;;;;;4965089;28;20062;-80
2021/12/23 20:43:05;;;;;;;;;;;-1.40;99.90;;;;;;4967837;29;20396;-79
2021/12/23 20:45:31;;;;;;;36.03;19.20;;;-1.40;99.90;;;;;;4966289;29;19911;-80
2021/12/23 20:47:56;;;;;;;;;;;-1.30;99.90;;;;;;4967093;29;20035;-80
2021/12/23 20:50:29;;;;;;;37.55;18.02;;;-1.40;99.90;;;;;;4966330;28;19917;-80
2021/12/23 20:53:00;;;;;;;38.15;18.30;;;-1.40;99.90;;;;;;4966354;28;20772;-80
2021/12/23 20:55:31;;;;;;;41.05;18.67;;;-1.30;99.90;;;;;;4965189;29;20061;-80
2021/12/23 20:57:57;;;;;;;41.95;19.55;;;-1.40;99.90;;;;;;4966670;29;20035;-80
2021/12/23 21:00:23;;;;;;;;;;;-1.40;99.90;;;;;;4981578;28;20170;-80
2021/12/23 21:02:49;;;;;;;33.88;16.52;;;-1.30;99.90;;;;;;4982520;28;19911;-80
2021/12/23 21:05:16;;;;;;;38.50;20.10;;;-1.30;99.90;;;;;;4966375;28;20066;-80
2021/12/23 21:07:43;;;;;;;35.33;17.67;;;-1.30;99.90;;;;;;4967196;28;20027;-79
2021/12/23 21:10:10;;;;;;;35.63;17.55;;;-1.30;99.90;;;;;;4965709;29;20460;-80
2021/12/23 21:12:36;;;;;;;33.75;16.83;;;-1.30;99.90;;;;;;4966065;29;20062;-80
2021/12/23 21:15:03;;;;;;;;;;;-1.30;99.90;;;;;;4965284;28;20522;-80
2021/12/23 21:17:28;;;;;;;42.97;21.23;;;-1.30;99.90;;;;;;4982678;28;19917;-80
2021/12/23 21:19:54;;;;;;;;;;;-1.30;99.90;;;;;;4968110;29;20444;-79
2021/12/23 21:22:20;;;;;;;41.08;20.50;;;-1.40;99.90;;;;;;4968320;28;19913;-81
2021/12/23 21:24:45;;;;;;;;;;;-1.40;99.90;;;;;;4971016;28;20608;-80
2021/12/23 21:27:12;;;;;;;35.35;17.48;;;-1.40;99.90;;;;;;4980118;28;19907;-80
2021/12/23 21:29:38;;;;;;;61.85;23.25;;;-1.40;99.90;;;;;;4967250;29;20116;-80
2021/12/23 21:32:04;;;;;;;;;;;-1.40;99.90;;;;;;4965442;29;20754;-80
2021/12/23 21:34:30;;;;;;;36.60;17.35;;;-1.40;99.90;;;;;;4964002;28;20413;-80
2021/12/23 21:36:56;;;;;;;;;;;-1.40;99.90;;;;;;4965698;28;20035;-80
2021/12/23 21:39:22;;;;;;;54.75;23.15;;;-1.40;99.90;;;;;;4966359;28;19906;-80
2021/12/23 21:41:49;;;;;;;;;;;-1.40;99.90;;;;;;4965678;28;20134;-80
2021/12/23 21:44:15;;;;;;;38.20;17.95;;;-1.40;99.90;;;;;;4963279;28;19962;-80
2021/12/23 21:46:41;;;;;;;;;;;-1.40;99.90;;;;;;4965314;28;20024;-81
2021/12/23 21:49:09;;;;;;;34.53;16.35;;;-1.40;99.90;;;;;;4980086;28;19966;-80
2021/12/23 21:51:35;;;;;;;35.50;17.02;;;-1.30;99.90;;;;;;4963998;28;20050;-80
2021/12/23 21:54:04;;;;;;;47.10;19.63;;;-1.40;99.90;;;;;;4979621;28;20047;-80
2021/12/23 21:56:31;;;;;;;50.15;23.95;;;-1.40;99.90;;;;;;4964167;29;20032;-80
2021/12/23 21:58:57;;;;;;;45.47;21.10;;;-1.40;99.90;;;;;;4962818;29;20555;-80
2021/12/23 22:01:23;;;;;;;;;;;-1.30;99.90;;;;;;4979221;28;20027;-80
2021/12/23 22:03:49;;;;;;;37.72;17.63;;;-1.30;99.90;;;;;;4964441;29;19918;-79
2021/12/23 22:06:15;;;;;;;36.60;17.60;;;-1.30;99.90;;;;;;4963272;28;20043;-80
2021/12/23 22:08:40;;;;;;;;;;;-1.30;99.90;;;;;;4963729;29;20047;-78
2021/12/23 22:11:08;;;;;;;35.38;18.48;;;-1.40;99.90;;;;;;4981713;28;19965;-80
2021/12/23 22:13:34;;;;;;;30.23;16.52;;;-1.40;99.90;;;;;;4963435;29;20035;-80
2021/12/23 22:16:02;;;;;;;30.77;16.70;;;-1.30;99.90;;;;;;4963198;29;20039;-80
2021/12/23 22:18:29;;;;;;;29.63;16.73;;;-1.40;99.90;;;;;;4962399;29;20436;-78
2021/12/23 22:20:55;;;;;;;32.22;15.77;;;-1.40;99.90;;;;;;4961740;28;20094;-80
2021/12/23 22:23:21;;;;;;;;;;;-1.40;99.90;;;;;;4961622;29;20032;-80
2021/12/23 22:25:47;;;;;;;33.90;16.50;;;-1.40;99.90;;;;;;4963554;29;19910;-80
2021/12/23 22:28:12;;;;;;;;;;;-1.40;99.90;;;;;;4978315;28;20023;-80
2021/12/23 22:30:39;;;;;;;38.03;18.98;;;-1.40;99.90;;;;;;4961748;29;19921;-81
2021/12/23 22:33:05;;;;;;;33.25;16.15;;;-1.50;99.90;;;;;;4961099;28;20058;-80
2021/12/23 22:35:31;;;;;;;;;;;-1.50;99.90;;;;;;4961453;29;20771;-80
2021/12/23 22:37:57;;;;;;;30.20;14.70;;;-1.40;99.90;;;;;;4961617;28;20430;-80
2021/12/23 22:40:23;;;;;;;;;;;-1.40;99.90;;;;;;4961604;29;20031;-80
2021/12/23 22:42:49;;;;;;;32.93;16.70;;;-1.40;99.90;;;;;;4962333;29;19934;-80
2021/12/23 22:45:17;;;;;;;;;;;-1.50;99.90;;;;;;4963307;28;20019;-80
2021/12/23 22:47:42;;;;;;;;;;;-1.50;99.90;;;;;;4979295;28;19906;-80
2021/12/23 22:50:10;;;;;;;32.78;15.45;;;-1.50;99.90;;;;;;4963402;29;20026;-80
2021/12/23 22:52:36;;;;;;;37.67;17.80;;;-1.50;99.90;;;;;;4963552;28;20115;-80
2021/12/23 22:55:03;;;;;;;32.80;16.70;;;-1.50;99.90;;;;;;4962516;28;20080;-80
2021/12/23 22:57:30;;;;;;;36.45;20.08;;;-1.60;99.90;;;;;;4962033;29;20134;-79
2021/12/23 22:59:57;;;;;;;37.13;18.48;;;-1.60;99.90;;;;;;4962159;29;20447;-80
2021/12/23 23:02:23;;;;;;;53.42;28.00;;;-1.60;99.90;;;;;;4961935;29;20027;-79
2021/12/23 23:04:49;;;;;;;48.92;25.63;;;-1.60;99.90;;;;;;4962120;29;20424;-80
2021/12/23 23:07:16;;;;;;;39.47;21.88;;;-1.60;99.90;;;;;;4961393;29;20030;-80
2021/12/23 23:09:42;;;;;;;36.47;19.02;;;-1.50;99.90;;;;;;4961051;29;20027;-80
2021/12/23 23:12:14;;;;;;;31.98;17.92;;;-1.50;99.90;;;;;;4962003;29;20202;-80
2021/12/23 23:17:07;;;;;;;30.42;16.50;;;-1.50;99.90;;;;;;4963834;29;20031;-80
2021/12/23 23:19:32;;;;;;;34.17;18.30;;;-1.40;99.90;;;;;;4961649;29;20023;-80
2021/12/23 23:21:58;;;;;;;;;;;-1.50;99.90;;;;;;4963849;29;20496;-80
2021/12/23 23:24:29;;;;;;;37.22;19.92;;;-1.40;99.90;;;;;;4963036;28;19906;-80
2021/12/23 23:35:22;;;;;;;42.80;21.85;;;-1.40;99.90;;;;;;4962644;29;20160;-80
2021/12/23 23:38:27;;;;;;;47.17;23.58;;;-1.30;99.90;;;;;;4961793;28;20567;-79
2021/12/23 23:40:57;;;;;;;44.40;20.85;;;-1.40;99.90;;;;;;4963297;28;20055;-80
2021/12/23 23:43:30;;;;;;;63.35;29.20;;;-1.40;99.90;;;;;;4962482;29;20098;-79
2021/12/23 23:46:06;;;;;;;54.60;27.88;;;-1.30;99.90;;;;;;4961663;29;20072;-80
2021/12/23 23:48:32;;;;;;;48.42;23.30;;;-1.40;99.90;;;;;;4964333;28;20035;-80
2021/12/23 23:51:00;;;;;;;42.60;22.40;;;-1.40;99.90;;;;;;4965445;28;20059;-80
2021/12/23 23:53:27;;;;;;;38.38;21.00;;;-1.40;99.90;;;;;;4965403;28;20492;-80